createdAt,value
2019-01-29T00:00:53.115Z,1.67
2019-01-29T00:03:19.527Z,1.40
2019-01-29T00:05:46.239Z,1.40
2019-01-29T00:08:12.683Z,1.20
2019-01-29T00:10:39.127Z,1.37
2019-01-29T00:13:05.840Z,1.20
2019-01-29T00:15:32.252Z,1.50
2019-01-29T00:17:59.011Z,1.30
2019-01-29T00:20:25.757Z,1.30
2019-01-29T00:22:52.507Z,1.33
2019-01-29T00:25:19.240Z,1.20
2019-01-29T00:27:45.656Z,1.50
2019-01-29T00:30:13.423Z,1.50
2019-01-29T00:32:40.163Z,1.00
2019-01-29T00:35:06.607Z,1.40
2019-01-29T00:37:33.037Z,1.33
2019-01-29T00:39:59.475Z,1.67
2019-01-29T00:42:25.891Z,1.37
2019-01-29T00:44:52.307Z,1.10
2019-01-29T00:47:19.065Z,1.10
2019-01-29T00:49:45.488Z,1.10
2019-01-29T00:52:11.891Z,1.00
2019-01-29T00:54:38.344Z,1.20
2019-01-29T00:57:04.796Z,1.40
2019-01-29T00:59:31.212Z,1.30
2019-01-29T01:01:57.631Z,1.37
2019-01-29T01:04:24.076Z,1.37
2019-01-29T01:06:50.828Z,0.80
2019-01-29T01:09:17.566Z,1.13
2019-01-29T01:11:43.980Z,1.13
2019-01-29T01:14:10.415Z,1.47
2019-01-29T01:16:36.855Z,1.43
2019-01-29T01:19:03.607Z,1.20
2019-01-29T01:21:30.059Z,1.20
2019-01-29T01:23:56.479Z,0.87
2019-01-29T01:26:23.212Z,1.30
2019-01-29T01:28:49.655Z,1.27
2019-01-29T01:31:16.385Z,1.20
2019-01-29T01:33:42.836Z,1.80
2019-01-29T01:36:10.276Z,1.50
2019-01-29T01:38:36.724Z,1.20
2019-01-29T01:41:03.443Z,1.20
2019-01-29T01:43:29.856Z,1.13
2019-01-29T01:45:56.616Z,1.40
2019-01-29T01:48:23.351Z,0.93
2019-01-29T01:50:49.799Z,1.30
2019-01-29T01:53:16.212Z,1.10
2019-01-29T01:55:42.623Z,1.10
2019-01-29T01:58:09.387Z,1.50
2019-01-29T02:00:35.803Z,1.10
2019-01-29T02:03:02.219Z,1.47
2019-01-29T02:05:28.991Z,1.43
2019-01-29T02:07:55.412Z,1.50
2019-01-29T02:10:26.139Z,1.23
2019-01-29T02:12:52.595Z,1.10
2019-01-29T02:15:19.045Z,1.30
2019-01-29T02:17:45.459Z,1.20
2019-01-29T02:20:13.781Z,1.10
2019-01-29T02:22:40.223Z,1.60
2019-01-29T02:25:06.900Z,1.10
2019-01-29T02:27:33.352Z,1.07
2019-01-29T02:29:59.795Z,1.33
2019-01-29T02:32:26.504Z,1.13
2019-01-29T02:34:52.955Z,1.10
2019-01-29T02:37:19.373Z,0.90
2019-01-29T02:39:45.792Z,0.90
2019-01-29T02:42:12.244Z,1.20
2019-01-29T02:44:38.705Z,1.00
2019-01-29T02:47:05.408Z,1.20
2019-01-29T02:49:31.873Z,1.17
2019-01-29T02:51:58.317Z,0.87
2019-01-29T02:54:24.731Z,0.83
2019-01-29T02:56:51.168Z,1.37
2019-01-29T02:59:17.615Z,1.30
2019-01-29T03:01:44.293Z,1.13
2019-01-29T03:04:10.739Z,1.17
2019-01-29T03:06:37.151Z,1.10
2019-01-29T03:09:05.472Z,1.00
2019-01-29T03:11:32.184Z,1.10
2019-01-29T03:13:58.605Z,1.10
2019-01-29T03:16:25.355Z,1.37
2019-01-29T03:18:51.803Z,0.77
2019-01-29T03:21:18.220Z,1.00
2019-01-29T03:23:44.964Z,1.10
2019-01-29T03:26:11.407Z,1.10
2019-01-29T03:28:38.092Z,1.00
2019-01-29T03:31:04.504Z,1.10
2019-01-29T03:33:30.956Z,1.13
2019-01-29T03:35:57.637Z,0.80
2019-01-29T03:38:24.084Z,0.90
2019-01-29T03:40:50.500Z,0.77
2019-01-29T03:43:17.235Z,1.10
2019-01-29T03:45:43.678Z,1.10
2019-01-29T03:48:10.407Z,0.87
2019-01-29T03:50:37.148Z,0.80
2019-01-29T03:53:03.892Z,1.00
2019-01-29T03:55:30.302Z,1.10
2019-01-29T03:57:56.753Z,1.30
2019-01-29T04:00:25.245Z,0.90
2019-01-29T04:02:51.772Z,0.90
2019-01-29T04:05:18.187Z,1.20
2019-01-29T04:07:44.604Z,0.90
2019-01-29T04:10:12.748Z,1.20
2019-01-29T04:12:39.159Z,1.00
2019-01-29T04:15:07.476Z,1.00
2019-01-29T04:17:34.251Z,1.00
2019-01-29T04:20:00.987Z,1.13
2019-01-29T04:22:27.410Z,0.80
2019-01-29T04:24:54.185Z,0.90
2019-01-29T04:27:20.592Z,1.10
2019-01-29T04:29:47.072Z,0.90
2019-01-29T04:32:13.767Z,1.33
2019-01-29T04:34:40.506Z,1.20
2019-01-29T04:37:07.244Z,1.07
2019-01-29T04:39:33.660Z,1.07
2019-01-29T04:42:00.107Z,0.97
2019-01-29T04:44:26.551Z,0.83
2019-01-29T04:46:52.960Z,0.97
2019-01-29T04:49:19.404Z,0.90
2019-01-29T04:51:46.065Z,1.13
2019-01-29T04:54:12.881Z,1.10
2019-01-29T04:56:39.327Z,1.20
2019-01-29T04:59:06.051Z,0.60
2019-01-29T05:01:32.472Z,0.90
2019-01-29T05:03:58.911Z,1.20
2019-01-29T05:06:25.379Z,1.03
2019-01-29T05:08:51.795Z,0.80
2019-01-29T05:11:18.523Z,1.30
2019-01-29T05:13:44.991Z,1.00
2019-01-29T05:16:11.405Z,1.10
2019-01-29T05:18:37.854Z,0.90
2019-01-29T05:21:04.560Z,1.00
2019-01-29T05:23:31.020Z,1.10
2019-01-29T05:25:57.490Z,0.90
2019-01-29T05:28:23.976Z,0.97
2019-01-29T05:30:50.392Z,1.00
2019-01-29T05:33:16.813Z,1.07
2019-01-29T05:35:43.265Z,0.80
2019-01-29T05:38:10.014Z,0.80
2019-01-29T05:40:36.427Z,1.00
2019-01-29T05:43:02.871Z,0.90
2019-01-29T05:45:29.315Z,1.00
2019-01-29T05:47:55.846Z,1.13
2019-01-29T05:50:22.368Z,0.80
2019-01-29T05:52:48.783Z,0.93
2019-01-29T05:55:15.632Z,0.87
2019-01-29T05:57:42.071Z,0.80
2019-01-29T06:00:10.399Z,0.90
2019-01-29T06:02:37.191Z,0.80
2019-01-29T06:05:06.412Z,1.10
2019-01-29T06:07:32.823Z,1.13
2019-01-29T06:09:59.267Z,1.13
2019-01-29T06:12:26.007Z,1.00
2019-01-29T06:14:52.726Z,0.80
2019-01-29T06:17:27.205Z,0.60
2019-01-29T06:19:47.489Z,0.67
2019-01-29T06:22:14.397Z,1.03
2019-01-29T06:24:40.809Z,0.90
2019-01-29T06:27:07.228Z,0.80
2019-01-29T06:29:33.703Z,0.70
2019-01-29T06:32:00.412Z,0.70
2019-01-29T06:34:26.885Z,0.97
2019-01-29T06:36:53.304Z,0.87
2019-01-29T06:39:19.751Z,0.90
2019-01-29T06:41:46.191Z,0.80
2019-01-29T06:44:12.874Z,0.70
2019-01-29T06:46:39.329Z,0.80
2019-01-29T06:49:05.744Z,1.10
2019-01-29T06:51:32.287Z,0.70
2019-01-29T06:53:58.730Z,0.90
2019-01-29T06:56:25.180Z,0.97
2019-01-29T06:58:52.687Z,0.80
2019-01-29T07:01:19.115Z,1.10
2019-01-29T07:03:45.775Z,0.93
2019-01-29T07:06:12.219Z,0.77
2019-01-29T07:08:38.641Z,1.30
2019-01-29T07:11:05.075Z,0.97
2019-01-29T07:13:31.492Z,1.00
2019-01-29T07:16:12.668Z,1.20
2019-01-29T07:18:44.128Z,1.20
2019-01-29T07:21:10.554Z,1.03
2019-01-29T07:23:36.995Z,1.00
2019-01-29T07:26:03.468Z,1.20
2019-01-29T07:28:30.164Z,1.33
2019-01-29T07:30:56.900Z,1.30
2019-01-29T07:33:23.387Z,1.30
2019-01-29T07:35:49.829Z,1.27
2019-01-29T07:38:16.263Z,1.20
2019-01-29T07:40:42.679Z,1.60
2019-01-29T07:43:09.133Z,1.10
2019-01-29T07:45:35.545Z,1.27
2019-01-29T07:48:01.951Z,1.40
2019-01-29T07:50:28.422Z,1.73
2019-01-29T07:52:55.200Z,1.67
2019-01-29T07:55:21.949Z,1.50
2019-01-29T07:57:48.356Z,1.50
2019-01-29T08:00:15.511Z,1.83
2019-01-29T08:02:41.919Z,1.50
2019-01-29T08:05:09.616Z,1.60
2019-01-29T08:07:36.064Z,2.20
2019-01-29T08:10:04.285Z,2.03
2019-01-29T08:12:30.737Z,2.00
2019-01-29T08:14:57.148Z,1.93
2019-01-29T08:17:23.589Z,1.90
2019-01-29T08:19:50.360Z,2.10
2019-01-29T08:22:16.770Z,1.83
2019-01-29T08:24:51.604Z,2.00
2019-01-29T08:27:11.918Z,2.40
2019-01-29T08:29:38.646Z,2.33
2019-01-29T08:32:05.113Z,2.00
2019-01-29T08:34:31.647Z,1.70
2019-01-29T08:36:58.060Z,2.90
2019-01-29T08:39:24.528Z,2.33
2019-01-29T08:41:50.939Z,2.40
2019-01-29T08:44:17.404Z,2.37
2019-01-29T08:46:43.814Z,2.40
2019-01-29T08:49:10.511Z,2.27
2019-01-29T08:51:36.927Z,2.20
2019-01-29T08:54:03.355Z,2.60
2019-01-29T08:56:29.800Z,2.70
2019-01-29T08:58:56.547Z,3.20
2019-01-29T09:01:22.959Z,2.70
2019-01-29T09:03:49.407Z,2.70
2019-01-29T09:06:15.823Z,3.10
2019-01-29T09:08:42.601Z,3.07
2019-01-29T09:11:09.043Z,2.80
2019-01-29T09:13:35.455Z,2.97
2019-01-29T09:16:01.909Z,3.27
2019-01-29T09:18:28.351Z,3.30
2019-01-29T09:20:54.768Z,3.10
2019-01-29T09:23:21.188Z,3.40
2019-01-29T09:25:47.634Z,3.03
2019-01-29T09:28:18.464Z,3.00
2019-01-29T09:30:43.947Z,3.00
2019-01-29T09:33:10.900Z,3.03
2019-01-29T09:35:37.671Z,3.00
2019-01-29T09:38:04.119Z,3.03
2019-01-29T09:40:30.535Z,3.20
2019-01-29T09:42:56.979Z,3.37
2019-01-29T09:45:23.391Z,3.20
2019-01-29T09:47:50.112Z,2.80
2019-01-29T09:50:21.477Z,3.30
2019-01-29T09:52:47.925Z,3.13
2019-01-29T09:55:16.145Z,3.00
2019-01-29T09:57:42.814Z,2.97
2019-01-29T10:00:14.455Z,2.60
2019-01-29T10:02:40.871Z,3.47
2019-01-29T10:05:08.452Z,3.60
2019-01-29T10:07:35.188Z,3.63
2019-01-29T10:10:01.933Z,3.30
2019-01-29T10:12:28.664Z,2.50
2019-01-29T10:14:55.082Z,3.20
2019-01-29T10:17:22.351Z,3.07
2019-01-29T10:19:49.089Z,2.97
2019-01-29T10:22:15.503Z,2.57
2019-01-29T10:24:41.953Z,3.07
2019-01-29T10:27:08.692Z,2.60
2019-01-29T10:29:35.103Z,3.33
2019-01-29T10:32:01.865Z,2.97
2019-01-29T10:34:28.599Z,2.40
2019-01-29T10:36:55.019Z,2.37
2019-01-29T10:39:21.463Z,2.50
2019-01-29T10:41:48.213Z,2.03
2019-01-29T10:44:14.623Z,2.20
2019-01-29T10:46:41.075Z,2.13
2019-01-29T10:49:07.483Z,2.10
2019-01-29T10:51:33.927Z,2.30
2019-01-29T10:54:00.676Z,2.40
2019-01-29T10:56:27.148Z,2.40
2019-01-29T10:58:53.562Z,2.40
2019-01-29T11:01:19.975Z,2.40
2019-01-29T11:03:46.425Z,2.20
2019-01-29T11:06:13.140Z,2.10
2019-01-29T11:08:39.552Z,2.23
2019-01-29T11:11:05.994Z,2.30
2019-01-29T11:13:32.403Z,2.53
2019-01-29T11:15:58.848Z,2.13
2019-01-29T11:18:25.509Z,2.10
2019-01-29T11:20:51.956Z,1.90
2019-01-29T11:23:18.684Z,2.50
2019-01-29T11:25:45.419Z,2.43
2019-01-29T11:28:12.167Z,2.00
2019-01-29T11:30:39.616Z,2.30
2019-01-29T11:33:06.063Z,2.17
2019-01-29T11:35:32.791Z,2.07
2019-01-29T11:37:59.199Z,1.60
2019-01-29T11:40:27.124Z,1.90
2019-01-29T11:42:53.823Z,1.57
2019-01-29T11:45:28.166Z,2.57
2019-01-29T11:47:54.880Z,2.20
2019-01-29T11:50:21.324Z,2.07
2019-01-29T11:52:47.739Z,1.50
2019-01-29T11:55:14.151Z,1.80
2019-01-29T11:57:40.916Z,1.90
2019-01-29T12:00:09.501Z,1.80
2019-01-29T12:02:35.944Z,2.10
2019-01-29T12:05:03.759Z,2.50
2019-01-29T12:07:30.535Z,1.77
2019-01-29T12:09:56.968Z,1.70
2019-01-29T12:12:23.384Z,2.10
2019-01-29T12:14:49.837Z,1.83
2019-01-29T12:17:16.247Z,1.40
2019-01-29T12:19:42.659Z,1.40
2019-01-29T12:22:09.103Z,1.30
2019-01-29T12:24:36.492Z,2.03
2019-01-29T12:27:03.225Z,1.50
2019-01-29T12:29:29.959Z,1.83
2019-01-29T12:31:56.403Z,1.60
2019-01-29T12:34:23.131Z,1.50
2019-01-29T12:36:49.552Z,1.30
2019-01-29T12:39:15.963Z,1.30
2019-01-29T12:41:42.412Z,1.50
2019-01-29T12:44:09.067Z,1.30
2019-01-29T12:46:35.488Z,1.40
2019-01-29T12:49:02.239Z,1.50
2019-01-29T12:51:30.554Z,1.63
2019-01-29T12:53:57.255Z,1.30
2019-01-29T12:56:23.991Z,1.50
2019-01-29T12:58:50.408Z,1.80
2019-01-29T13:01:17.163Z,1.60
2019-01-29T13:03:43.575Z,1.63
2019-01-29T13:06:10.336Z,1.33
2019-01-29T13:08:36.751Z,1.40
2019-01-29T13:11:03.567Z,1.43
2019-01-29T13:13:30.017Z,1.60
2019-01-29T13:15:56.683Z,1.60
2019-01-29T13:18:23.132Z,1.50
2019-01-29T13:20:49.578Z,1.13
2019-01-29T13:23:16.096Z,1.40
2019-01-29T13:25:42.826Z,1.40
2019-01-29T13:28:09.276Z,1.20
2019-01-29T13:30:35.993Z,1.33
2019-01-29T13:33:04.311Z,1.10
2019-01-29T13:35:32.008Z,1.03
2019-01-29T13:37:58.419Z,1.30
2019-01-29T13:40:25.101Z,0.73
2019-01-29T13:42:51.554Z,1.17
2019-01-29T13:45:17.967Z,0.97
2019-01-29T13:47:44.422Z,1.03
2019-01-29T13:50:15.943Z,1.10
2019-01-29T13:52:42.683Z,1.20
2019-01-29T13:55:10.595Z,1.30
2019-01-29T13:57:37.035Z,1.10
2019-01-29T14:00:05.357Z,0.93
2019-01-29T14:02:32.104Z,1.37
2019-01-29T14:04:58.839Z,1.00
2019-01-29T14:07:25.258Z,1.27
2019-01-29T14:09:51.725Z,1.20
2019-01-29T14:12:18.267Z,1.00
2019-01-29T14:14:44.679Z,1.27
2019-01-29T14:17:11.335Z,1.30
2019-01-29T14:19:37.779Z,1.20
2019-01-29T14:22:05.291Z,1.20
2019-01-29T14:24:31.716Z,1.30
2019-01-29T14:26:58.156Z,1.50
2019-01-29T14:29:24.903Z,1.30
2019-01-29T14:31:51.315Z,1.60
2019-01-29T14:34:17.764Z,1.20
2019-01-29T14:36:44.212Z,0.83
2019-01-29T14:39:15.871Z,1.20
2019-01-29T14:41:42.316Z,1.10
2019-01-29T14:44:09.739Z,1.00
2019-01-29T14:46:36.192Z,2.13
2019-01-29T14:49:02.603Z,1.30
2019-01-29T14:51:29.015Z,1.17
2019-01-29T14:53:55.779Z,2.57
2019-01-29T14:56:22.193Z,0.90
2019-01-29T14:58:48.648Z,1.20
2019-01-29T15:01:15.379Z,1.20
2019-01-29T15:03:42.229Z,0.97
2019-01-29T15:06:08.771Z,1.00
2019-01-29T15:08:35.183Z,0.80
2019-01-29T15:11:01.641Z,1.00
2019-01-29T15:13:28.055Z,1.00
2019-01-29T15:16:05.504Z,0.90
2019-01-29T15:18:34.127Z,1.00
2019-01-29T15:21:00.870Z,0.77
2019-01-29T15:23:27.712Z,0.90
2019-01-29T15:25:54.128Z,0.93
2019-01-29T15:28:20.551Z,1.33
2019-01-29T15:30:47.153Z,0.90
2019-01-29T15:33:13.704Z,1.00
2019-01-29T15:35:40.176Z,1.13
2019-01-29T15:38:06.628Z,0.80
2019-01-29T15:40:33.347Z,1.10
2019-01-29T15:42:59.799Z,1.33
2019-01-29T15:45:28.881Z,1.10
2019-01-29T15:47:56.535Z,0.90
2019-01-29T15:50:26.719Z,0.97
2019-01-29T15:52:53.286Z,0.80
2019-01-29T15:55:22.795Z,0.80
2019-01-29T15:57:52.019Z,1.00
2019-01-29T16:00:29.744Z,0.93
2019-01-29T16:02:56.326Z,1.10
2019-01-29T16:05:24.727Z,0.80
2019-01-29T16:07:53.148Z,1.10
2019-01-29T16:10:22.656Z,0.70
2019-01-29T16:12:52.147Z,0.70
2019-01-29T16:15:20.880Z,0.90
2019-01-29T16:17:50.400Z,0.90
2019-01-29T16:20:18.682Z,0.80
2019-01-29T16:22:47.091Z,1.03
2019-01-29T16:25:15.487Z,0.80
2019-01-29T16:27:42.359Z,1.03
2019-01-29T16:30:11.477Z,1.03
2019-01-29T16:32:39.075Z,0.90
2019-01-29T16:35:07.489Z,0.73
2019-01-29T16:37:36.947Z,1.43
2019-01-29T16:40:09.492Z,0.87
2019-01-29T16:42:37.176Z,0.70
2019-01-29T16:45:06.600Z,0.90
2019-01-29T16:47:35.319Z,0.80
2019-01-29T16:50:04.824Z,1.20
2019-01-29T16:52:32.691Z,0.80
2019-01-29T16:55:01.848Z,0.83
2019-01-29T16:57:31.699Z,0.77
2019-01-29T16:59:57.888Z,0.73
2019-01-29T17:02:24.497Z,0.87
2019-01-29T17:04:53.963Z,0.93
2019-01-29T17:07:23.188Z,0.60
2019-01-29T17:09:51.948Z,1.10
2019-01-29T17:12:21.163Z,0.80
2019-01-29T17:14:49.922Z,1.10
2019-01-29T17:17:19.203Z,0.90
2019-01-29T17:19:48.655Z,0.93
2019-01-29T17:22:17.423Z,0.80
2019-01-29T17:24:46.659Z,0.90
2019-01-29T17:27:15.409Z,0.50
2019-01-29T17:29:44.663Z,0.67
2019-01-29T17:32:14.127Z,0.70
2019-01-29T17:34:42.643Z,0.70
2019-01-29T17:37:12.125Z,0.77
2019-01-29T17:39:40.596Z,1.20
2019-01-29T17:42:10.132Z,0.90
2019-01-29T17:44:39.607Z,1.10
2019-01-29T17:47:08.115Z,0.80
2019-01-29T17:49:36.563Z,1.13
2019-01-29T17:52:05.114Z,1.07
2019-01-29T17:54:34.838Z,1.40
2019-01-29T17:57:04.339Z,0.90
2019-01-29T17:59:33.802Z,0.73
2019-01-29T18:02:03.271Z,1.10
2019-01-29T18:04:31.753Z,0.80
2019-01-29T18:07:00.512Z,0.93
2019-01-29T18:09:29.731Z,1.00
2019-01-29T18:11:58.211Z,1.30
2019-01-29T18:14:27.081Z,1.03
2019-01-29T18:16:56.494Z,1.00
2019-01-29T18:19:25.708Z,1.13
2019-01-29T18:21:56.956Z,0.80
2019-01-29T18:24:25.753Z,1.17
2019-01-29T18:26:55.236Z,0.80
2019-01-29T18:29:24.105Z,1.00
2019-01-29T18:31:53.219Z,1.00
2019-01-29T18:34:23.113Z,1.47
2019-01-29T18:36:52.235Z,1.00
2019-01-29T18:39:22.131Z,1.23
2019-01-29T18:41:51.522Z,1.33
2019-01-29T18:44:20.743Z,1.10
2019-01-29T18:46:49.256Z,1.03
2019-01-29T18:49:18.723Z,1.10
2019-01-29T18:51:47.499Z,1.20
2019-01-29T18:54:17.095Z,1.27
2019-01-29T18:56:46.232Z,1.50
2019-01-29T18:59:15.784Z,1.10
2019-01-29T19:01:44.786Z,1.33
2019-01-29T19:04:13.987Z,1.33
2019-01-29T19:06:43.272Z,1.00
2019-01-29T19:09:12.712Z,1.30
2019-01-29T19:11:42.625Z,1.27
2019-01-29T19:14:11.724Z,1.07
2019-01-29T19:16:40.247Z,1.50
2019-01-29T19:19:09.989Z,1.37
2019-01-29T19:21:39.492Z,1.23
2019-01-29T19:24:08.751Z,1.33
2019-01-29T19:26:38.219Z,1.60
2019-01-29T19:29:07.856Z,1.50
2019-01-29T19:31:36.392Z,1.10
2019-01-29T19:34:05.829Z,1.50
2019-01-29T19:36:35.351Z,1.10
2019-01-29T19:39:04.819Z,1.50
2019-01-29T19:41:34.339Z,1.40
2019-01-29T19:44:03.075Z,1.37
2019-01-29T19:46:32.617Z,1.53
2019-01-29T19:49:01.252Z,1.50
2019-01-29T19:51:30.699Z,1.30
2019-01-29T19:54:00.444Z,1.37
2019-01-29T19:56:30.351Z,1.47
2019-01-29T19:58:59.699Z,1.67
2019-01-29T20:01:28.915Z,1.50
2019-01-29T20:03:58.486Z,1.10
2019-01-29T20:06:27.927Z,1.50
2019-01-29T20:08:57.683Z,1.57
2019-01-29T20:11:27.000Z,1.30
2019-01-29T20:13:56.445Z,1.40
2019-01-29T20:16:26.013Z,1.53
2019-01-29T20:18:55.479Z,1.40
2019-01-29T20:21:25.239Z,1.43
2019-01-29T20:23:54.513Z,1.57
2019-01-29T20:26:24.348Z,2.07
2019-01-29T20:28:53.470Z,1.40
2019-01-29T20:31:22.231Z,1.80
2019-01-29T20:33:48.913Z,1.83
2019-01-29T20:36:17.892Z,1.67
2019-01-29T20:38:46.648Z,1.50
2019-01-29T20:41:15.952Z,1.90
2019-01-29T20:43:45.388Z,1.80
2019-01-29T20:46:13.859Z,1.50
2019-01-29T20:48:42.363Z,1.50
2019-01-29T20:51:08.810Z,1.37
2019-01-29T20:53:35.396Z,2.07
2019-01-29T20:56:01.816Z,1.33
2019-01-29T20:58:28.232Z,1.67
2019-01-29T21:00:54.817Z,1.50
2019-01-29T21:03:21.515Z,1.50
2019-01-29T21:05:47.969Z,1.63
2019-01-29T21:08:14.688Z,2.00
2019-01-29T21:10:41.109Z,1.53
2019-01-29T21:13:07.579Z,1.80
2019-01-29T21:15:38.658Z,1.73
2019-01-29T21:18:02.568Z,1.80
2019-01-29T21:20:30.536Z,1.63
2019-01-29T21:22:56.951Z,1.93
2019-01-29T21:25:23.366Z,1.67
2019-01-29T21:27:49.827Z,1.63
2019-01-29T21:30:18.424Z,1.73
2019-01-29T21:32:44.831Z,2.17
2019-01-29T21:35:11.279Z,1.83
2019-01-29T21:37:38.345Z,1.33
2019-01-29T21:40:06.842Z,1.67
2019-01-29T21:42:33.319Z,1.50
2019-01-29T21:44:59.737Z,1.20
2019-01-29T21:47:26.143Z,1.70
2019-01-29T21:49:52.592Z,1.40
2019-01-29T21:52:19.012Z,1.40
2019-01-29T21:54:45.708Z,1.47
2019-01-29T21:57:12.132Z,1.67
2019-01-29T21:59:38.552Z,1.40
2019-01-29T22:02:05.012Z,1.90
2019-01-29T22:04:31.427Z,1.43
2019-01-29T22:06:57.881Z,1.60
2019-01-29T22:09:24.301Z,1.80
2019-01-29T22:11:50.699Z,1.63
2019-01-29T22:14:17.148Z,1.40
2019-01-29T22:16:43.806Z,1.40
2019-01-29T22:19:10.540Z,1.57
2019-01-29T22:21:37.279Z,1.70
2019-01-29T22:24:03.695Z,1.60
2019-01-29T22:26:30.451Z,1.60
2019-01-29T22:28:57.191Z,1.70
2019-01-29T22:31:23.932Z,1.90
2019-01-29T22:33:50.347Z,1.23
2019-01-29T22:36:16.800Z,1.60
2019-01-29T22:38:43.540Z,1.77
2019-01-29T22:41:10.276Z,1.50
2019-01-29T22:43:36.728Z,1.40
2019-01-29T22:46:03.140Z,1.50
2019-01-29T22:48:29.551Z,1.80
2019-01-29T22:50:56.000Z,1.60
2019-01-29T22:53:22.739Z,1.70
2019-01-29T22:55:49.188Z,1.60
2019-01-29T22:58:15.603Z,1.50
2019-01-29T23:00:55.038Z,1.43
2019-01-29T23:03:23.419Z,1.90
2019-01-29T23:05:51.744Z,1.60
2019-01-29T23:08:18.183Z,1.53
2019-01-29T23:10:44.627Z,1.50
2019-01-29T23:13:11.301Z,1.40
2019-01-29T23:15:37.720Z,1.60
2019-01-29T23:18:04.173Z,1.60
2019-01-29T23:20:30.585Z,1.70
2019-01-29T23:22:57.338Z,1.57
2019-01-29T23:25:23.751Z,2.27
2019-01-29T23:27:50.168Z,1.40
2019-01-29T23:30:18.415Z,1.30
2019-01-29T23:32:44.888Z,1.50
2019-01-29T23:35:11.676Z,1.30
2019-01-29T23:37:38.589Z,2.00
2019-01-29T23:40:07.171Z,1.63
2019-01-29T23:42:33.655Z,1.70
2019-01-29T23:45:00.342Z,1.93
2019-01-29T23:47:26.755Z,1.83
2019-01-29T23:49:53.532Z,1.77
2019-01-29T23:52:20.260Z,1.70
2019-01-29T23:54:46.995Z,1.93
2019-01-29T23:57:13.753Z,1.93
2019-01-29T23:59:40.160Z,1.77
